TimeHST,TemperatureF,Dew PointF,Humidity,Sea Level PressureIn,VisibilityMPH,Wind Direction,Wind SpeedMPH,Gust SpeedMPH,PrecipitationIn,Events,Conditions,WindDirDegrees,DateUTC
12:56 AM,69.1,62.1,78,30.12,10.0,Calm,Calm,-,0.00,,Clear,0,2013-02-24 10:56:00
1:56 AM,66.9,62.1,84,30.12,10.0,Calm,Calm,-,N/A,,Clear,0,2013-02-24 11:56:00
2:56 AM,66.9,62.1,84,30.10,10.0,ENE,4.6,-,N/A,,Clear,70,2013-02-24 12:56:00
3:56 AM,66.0,61.0,84,30.09,10.0,East,3.5,-,N/A,,Clear,100,2013-02-24 13:56:00
4:56 AM,66.9,57.9,73,30.09,10.0,Calm,Calm,-,N/A,,Clear,0,2013-02-24 14:56:00
5:56 AM,64.9,55.0,70,30.09,10.0,East,3.5,-,N/A,,Clear,90,2013-02-24 15:56:00
6:56 AM,64.9,57.0,75,30.10,10.0,ENE,5.8,-,N/A,,Clear,70,2013-02-24 16:56:00
7:56 AM,68.0,60.1,76,30.12,10.0,Calm,Calm,-,N/A,,Clear,0,2013-02-24 17:56:00
8:56 AM,73.9,63.0,68,30.13,10.0,West,6.9,-,N/A,,Clear,270,2013-02-24 18:56:00
9:56 AM,75.0,57.9,55,30.14,10.0,WNW,4.6,-,N/A,,Clear,290,2013-02-24 19:56:00
10:56 AM,77.0,57.9,52,30.13,10.0,West,6.9,-,N/A,,Partly Cloudy,260,2013-02-24 20:56:00
11:56 AM,78.1,59.0,52,30.12,10.0,West,9.2,-,N/A,,Clear,280,2013-02-24 21:56:00
12:56 PM,79.0,57.0,47,30.10,10.0,WNW,6.9,-,N/A,,Clear,290,2013-02-24 22:56:00
1:56 PM,79.0,57.9,48,30.07,10.0,West,8.1,-,N/A,,Clear,260,2013-02-24 23:56:00
2:56 PM,80.1,59.0,48,30.05,10.0,West,10.4,-,N/A,,Partly Cloudy,260,2013-02-25 00:56:00
3:56 PM,80.1,57.0,45,30.04,10.0,WNW,8.1,-,N/A,,Clear,300,2013-02-25 01:56:00
4:56 PM,81.0,55.9,42,30.04,10.0,NNW,9.2,-,N/A,,Partly Cloudy,330,2013-02-25 02:56:00
5:56 PM,78.1,57.9,50,30.06,10.0,SW,11.5,-,N/A,,Scattered Clouds,220,2013-02-25 03:56:00
6:56 PM,75.9,59.0,56,30.09,10.0,SW,6.9,-,N/A,,Mostly Cloudy,220,2013-02-25 04:56:00
7:56 PM,73.0,55.0,53,30.11,10.0,NE,3.5,-,N/A,,Clear,50,2013-02-25 05:56:00
8:56 PM,71.1,54.0,55,30.13,10.0,Calm,Calm,-,N/A,,Clear,0,2013-02-25 06:56:00
9:56 PM,68.0,53.1,59,30.15,10.0,Calm,Calm,-,N/A,,Clear,0,2013-02-25 07:56:00
10:56 PM,66.9,54.0,63,30.14,10.0,East,3.5,-,N/A,,Clear,90,2013-02-25 08:56:00
11:56 PM,66.9,54.0,63,30.14,10.0,Calm,Calm,-,N/A,,Clear,0,2013-02-25 09:56:00